Fort Hill, PA (15540)

2:45 PM EDT on August 25, 2016 (GMT -0400)
KPACONFL2 | | Change Station

Elev 1336 ft 39.81 °N, 79.36 °W | Updated 5 seconds ago

Overcast
Overcast
84.6 °F
Feels Like 93 °F
N
0.0
Wind Variable Wind from WSW
Gusts 6.0 mph

Today
High -- | Low -- °F
--% Chance of Precip.
Yesterday
High -- | Low -- °F
Precip. -- in
Pressure 30.21 in
Visibility 10.0 miles
Clouds Scattered Clouds 1300 ft
Scattered Clouds 1800 ft
Overcast 3500 ft
Heat Index 93 °F
Dew Point 75 °F
Humidity 73%
Rainfall 0.43 in
Snow Depth Not available.
6:38 AM 7:58 PM
Last Quarter, 43% visible
METAR K2G4 251825Z AUTO 26007KT 10SM SCT013 SCT018 OVC035 23/20 A3021 RMK AO1
Pressure 30.21 in
Visibility 10.0 miles
Clouds Scattered Clouds 1300 ft
Scattered Clouds 1800 ft
Overcast 3500 ft
Heat Index 93 °F
Dew Point 75 °F
Humidity 73%
Rainfall 0.43 in
Snow Depth Not available.
6:38 AM 7:58 PM
Last Quarter, 43% visible
METAR K2G4 251825Z AUTO 26007KT 10SM SCT013 SCT018 OVC035 23/20 A3021 RMK AO1
A tropical disturbance pushing toward the Bahamas, is expected to develop into a tropical depression or storm, and will likely target Florida and the Gulf Coast this weekend into next week.

Right now, the disturbance remains a broad area of low pressure pushing through the Dominican Republic and Haiti, headed toward the southeast Bahamas. Rainfall totals over 3 inches (with locally higher amounts) are expected in HispaƱiola, particularly over elevated terrain.

10-Day Weather Forecast

Almanac

Astronomy

Aug. 25, 2016 Rise Set
Actual Time
Civil Twilight
Nautical Twilight
Astronomical Twilight
Moon
Length of Visible Light
Length of Day
Tomorrow will be .
, % of the Moon is Illuminated

Today's Extremes

State Highs State Lows

Community

WunderPhotos

Upload Photos

1,934,890 photos uploaded!

WunderBlog® & News

Nearby

Air Quality

  Air Quality AQ Index Pollutant
Not available.

Snow Depth

Station Depth Elevation

Earthquake Activity

City Distance Mag. Time & Date
Minimum magnitude displayed is 2.5.

Coastal Water Temperatures

Place Temperature

Stations

Nearby Weather Stations

Station Location Temp. Windchill Dew Point Humidity Wind Precip. Elev Updated Type
                   

Watches & Warnings

There are currently no watches in effect.